Time;durP1;ratioP1;P1;durP2;ratioP2;P2;SDS_P1;SDS_P2;PMS_P1;PMS_P2;Temp;Humidity;BMP_temperature;BMP_pressure;BME280_temperature;BME280_humidity;BME280_pressure;Samples;Min_cycle;Max_cycle;Signal;HPM_P1;HPM_P2
2021/09/02 00:01:24;;;;;;;;;10.25;10.00;;;;;22.74;47.28;101989.75;5055875;28;45347;-57
2021/09/02 00:03:49;;;;;;;;;15.00;12.75;;;;;22.75;47.28;102003.81;5056335;28;45364;-49
2021/09/02 00:06:15;;;;;;;;;13.00;11.00;;;;;22.75;47.22;102004.69;5056084;28;45511;-50
2021/09/02 00:08:40;;;;;;;;;13.25;11.75;;;;;22.75;47.02;102002.03;5055483;28;47991;-53
2021/09/02 00:11:06;;;;;;;;;12.75;12.00;;;;;22.75;47.02;102006.44;5055883;28;45679;-50
2021/09/02 00:13:32;;;;;;;;;12.25;12.25;;;;;22.74;47.09;102008.25;5055942;28;45300;-49
2021/09/02 00:15:57;;;;;;;;;12.25;12.00;;;;;22.74;47.18;102002.09;5055972;28;45271;-49
2021/09/02 00:18:22;;;;;;;;;12.75;11.25;;;;;22.73;47.26;101990.69;5055573;28;46273;-48
2021/09/02 00:20:48;;;;;;;;;12.75;11.50;;;;;22.74;47.08;101988.88;5055879;28;45355;-48
2021/09/02 00:23:13;;;;;;;;;11.25;9.00;;;;;22.74;47.22;101989.75;5055733;28;45266;-47
2021/09/02 00:25:39;;;;;;;;;14.25;11.25;;;;;22.74;47.09;101991.53;5056710;28;45292;-50
2021/09/02 00:28:04;;;;;;;;;9.00;9.00;;;;;22.73;47.39;101981.88;5058895;28;45356;-56
2021/09/02 00:30:30;;;;;;;;;11.50;10.25;;;;;22.73;46.97;101976.59;5059019;28;45420;-48
2021/09/02 00:32:55;;;;;;;;;10.25;10.25;;;;;22.73;47.06;101981.88;5059180;28;45352;-48
2021/09/02 00:35:20;;;;;;;;;11.00;11.00;;;;;22.72;46.83;101978.38;5059220;28;45493;-55
2021/09/02 00:37:46;;;;;;;;;11.50;11.50;;;;;22.73;47.13;101973.94;5058917;28;46877;-48
2021/09/02 00:40:11;;;;;;;;;11.00;11.00;;;;;22.70;47.25;101965.25;5040759;28;45370;-51
2021/09/02 00:42:36;;;;;;;;;11.75;10.75;;;;;22.72;47.13;101967.81;5059037;28;45893;-52
2021/09/02 00:45:02;;;;;;;;;15.00;12.00;;;;;22.72;46.82;101957.25;5059031;28;45430;-48
2021/09/02 00:47:28;;;;;;;;;14.00;11.25;;;;;22.72;47.06;101962.53;5058572;28;46487;-50
2021/09/02 00:49:54;;;;;;;;;11.75;10.00;;;;;22.71;46.68;101971.38;5040650;28;46144;-49
2021/09/02 00:52:25;;;;;;;;;13.50;11.00;;;;;22.72;47.15;101967.81;5059114;28;45389;-48
2021/09/02 00:54:56;;;;;;;;;13.25;12.00;;;;;22.71;47.23;101963.47;5041284;28;45615;-49
2021/09/02 00:57:26;;;;;;;;;11.00;9.25;;;;;22.70;46.79;101959.97;5040593;28;47366;-53
2021/09/02 00:59:54;;;;;;;;;11.25;9.25;;;;;22.71;47.30;101966.09;5058800;28;45883;-57
2021/09/02 01:02:20;;;;;;;;;10.00;10.00;;;;;22.70;46.97;101959.09;5058885;28;45469;-61
2021/09/02 01:04:46;;;;;;;;;13.25;12.25;;;;;22.69;47.13;101960.91;5058885;28;45458;-50
2021/09/02 01:07:11;;;;;;;;;7.25;7.25;;;;;22.69;47.14;101958.25;5058254;28;45425;-49
2021/09/02 01:09:37;;;;;;;;;14.25;12.50;;;;;22.69;47.19;101967.94;5058484;28;45242;-54
2021/09/02 01:12:30;;;;;;;;;8.75;8.75;;;;;22.69;47.13;101974.09;5058545;28;45335;-57
2021/09/02 01:14:57;;;;;;;;;12.25;11.00;;;;;22.69;47.14;101973.22;5058409;28;45400;-49
2021/09/02 01:17:23;;;;;;;;;13.50;13.50;;;;;22.69;47.18;101973.22;5058289;28;46695;-59
2021/09/02 01:19:54;;;;;;;;;11.00;11.00;;;;;22.68;47.09;101974.16;5058207;28;45281;-53
2021/09/02 01:22:27;;;;;;;;;10.50;10.50;;;;;22.69;47.01;101967.94;5057048;28;45344;-58
2021/09/02 01:24:55;;;;;;;;;12.00;12.00;;;;;22.69;47.10;101965.31;5058905;28;45345;-61
2021/09/02 01:27:20;;;;;;;;;9.50;9.50;;;;;22.68;47.00;101961.81;5058404;28;45550;-62
2021/09/02 01:29:59;;;;;;;;;12.75;11.50;;;;;22.67;47.09;101953.94;5058081;28;45841;-49
2021/09/02 01:32:29;;;;;;;;;8.00;8.00;;;;;22.68;46.92;101955.66;5058457;28;45396;-50
2021/09/02 01:34:56;;;;;;;;;11.25;10.50;;;;;22.67;47.11;101951.31;5058482;28;45442;-52
2021/09/02 01:37:22;;;;;;;;;13.75;11.00;;;;;22.68;47.12;101955.66;5057269;28;45491;-53
2021/09/02 01:39:48;;;;;;;;;13.00;10.75;;;;;22.67;47.00;101948.66;5057957;28;45324;-52
2021/09/02 01:42:14;;;;;;;;;11.00;11.00;;;;;22.66;47.06;101945.19;5058095;28;45378;-47
2021/09/02 01:44:39;;;;;;;;;10.00;10.00;;;;;22.66;47.02;101941.66;5058165;28;45503;-49
2021/09/02 01:47:25;;;;;;;;;10.75;9.00;;;;;22.66;47.28;101939.00;5057749;28;46111;-50
2021/09/02 01:49:52;;;;;;;;;15.00;11.00;;;;;22.65;47.13;101940.81;5039860;28;45252;-48
2021/09/02 01:52:18;;;;;;;;;10.00;9.00;;;;;22.66;47.32;101939.88;5057842;28;45435;-50
2021/09/02 01:54:43;;;;;;;;;10.75;10.75;;;;;22.64;47.02;101939.09;5058166;28;45281;-51
2021/09/02 01:57:09;;;;;;;;;11.00;9.75;;;;;22.65;46.76;101951.38;5057571;28;45468;-47
2021/09/02 01:59:34;;;;;;;;;12.25;11.50;;;;;22.66;47.04;101952.22;5057526;28;45446;-51
2021/09/02 02:02:00;;;;;;;;;9.75;9.75;;;;;22.66;46.90;101952.22;5057773;28;45303;-52
2021/09/02 02:04:25;;;;;;;;;11.00;11.00;;;;;22.65;47.11;101950.53;5058225;28;45658;-53
2021/09/02 02:06:51;;;;;;;;;12.25;10.75;;;;;22.64;47.01;101952.31;5057585;28;46651;-50
2021/09/02 02:09:16;;;;;;;;;10.50;9.75;;;;;22.65;47.09;101945.25;5057363;28;45291;-54
2021/09/02 02:11:41;;;;;;;;;9.75;9.75;;;;;22.65;47.21;101942.63;5057589;28;45269;-55
2021/09/02 02:14:06;;;;;;;;;14.25;12.00;;;;;22.64;47.24;101935.63;5057728;28;45332;-53
2021/09/02 02:16:32;;;;;;;;;12.25;11.75;;;;;22.63;47.16;101933.91;5057180;28;45657;-48
2021/09/02 02:18:57;;;;;;;;;9.00;8.00;;;;;22.63;47.04;101928.63;5057397;28;45228;-47
2021/09/02 02:21:23;;;;;;;;;9.00;8.50;;;;;22.64;47.15;101925.03;5057719;28;45182;-48
2021/09/02 02:23:48;;;;;;;;;12.00;10.00;;;;;22.62;46.80;101918.97;5057757;28;45284;-47
2021/09/02 02:26:13;;;;;;;;;11.00;10.50;;;;;22.63;47.12;101918.88;5057126;28;46524;-48
2021/09/02 02:28:39;;;;;;;;;8.25;8.25;;;;;22.62;46.99;101914.53;5056955;28;45426;-48
2021/09/02 02:31:04;;;;;;;;;10.25;9.50;;;;;22.63;47.15;101918.88;5057453;28;45329;-53
2021/09/02 02:33:29;;;;;;;;;12.00;12.00;;;;;22.63;47.12;101918.88;5057438;28;45314;-46
2021/09/02 02:35:55;;;;;;;;;13.75;9.75;;;;;22.63;46.99;101910.13;5057193;28;46645;-47
2021/09/02 02:38:20;;;;;;;;;11.75;9.25;;;;;22.62;47.03;101914.53;5057020;28;45288;-52
2021/09/02 02:40:46;;;;;;;;;11.75;10.25;;;;;22.63;47.07;101913.59;5057091;28;45364;-50
2021/09/02 02:43:13;;;;;;;;;12.25;12.25;;;;;22.62;46.70;101911.88;5057188;28;45327;-50
2021/09/02 02:45:38;;;;;;;;;14.50;12.25;;;;;22.59;47.49;101905.91;5022194;28;47014;-53
2021/09/02 02:48:04;;;;;;;;;10.25;9.75;;;;;22.63;46.97;101915.41;5056706;28;45378;-53
2021/09/02 02:50:29;;;;;;;;;12.25;11.50;;;;;22.62;47.00;101911.03;5056900;28;45403;-49
2021/09/02 02:52:55;;;;;;;;;10.75;10.75;;;;;22.60;47.55;101916.38;5057312;28;45315;-60
2021/09/02 02:55:20;;;;;;;;;12.50;9.50;;;;;22.62;47.31;101917.16;5056659;28;46254;-55
2021/09/02 02:57:46;;;;;;;;;12.75;11.50;;;;;22.61;47.22;101909.31;5056726;28;45303;-55
2021/09/02 03:00:11;;;;;;;;;10.50;10.00;;;;;22.61;47.27;101906.69;5056743;28;45411;-56
2021/09/02 03:02:37;;;;;;;;;12.00;10.25;;;;;22.61;47.02;101904.03;5055754;28;45513;-54
2021/09/02 03:05:02;;;;;;;;;10.25;8.75;;;;;22.59;47.04;101896.19;5056590;28;46104;-56
2021/09/02 03:07:28;;;;;;;;;10.00;9.50;;;;;22.60;47.23;101894.41;5056639;28;45218;-54
2021/09/02 03:09:53;;;;;;;;;9.75;8.50;;;;;22.59;47.03;101893.56;5056769;28;45274;-50
2021/09/02 03:12:18;;;;;;;;;10.50;10.00;;;;;22.59;47.00;101893.56;5055152;28;45568;-63
2021/09/02 03:14:44;;;;;;;;;10.00;10.00;;;;;22.60;46.99;101897.88;5056398;28;46589;-59
2021/09/02 03:17:09;;;;;;;;;10.50;10.50;;;;;22.60;47.11;101904.97;5056829;28;45338;-51
2021/09/02 03:19:34;;;;;;;;;11.50;10.50;;;;;22.58;47.04;101899.78;5057129;28;45741;-48
2021/09/02 03:22:00;;;;;;;;;12.00;12.00;;;;;22.59;46.88;101908.53;5056856;28;45213;-53
2021/09/02 03:24:25;;;;;;;;;13.00;10.75;;;;;22.59;46.97;101897.97;5056556;28;45271;-51
2021/09/02 03:26:50;;;;;;;;;11.00;10.50;;;;;22.58;47.38;101897.13;5056411;28;45380;-53
2021/09/02 03:29:16;;;;;;;;;13.00;12.50;;;;;22.58;46.99;101896.25;5056522;28;46433;-51
2021/09/02 03:31:41;;;;;;;;;19.25;11.00;;;;;22.58;46.85;101885.69;5056600;28;45352;-52
2021/09/02 03:34:06;;;;;;;;;11.00;11.00;;;;;22.58;46.92;101885.69;5056407;28;45418;-51
2021/09/02 03:36:32;;;;;;;;;12.00;9.50;;;;;22.57;47.06;101883.97;5056227;28;45394;-52
2021/09/02 03:38:57;;;;;;;;;12.25;10.75;;;;;22.58;47.02;101888.31;5056799;28;45387;-52
2021/09/02 03:41:23;;;;;;;;;13.50;11.25;;;;;22.58;46.85;101885.69;5056530;28;45273;-48
2021/09/02 03:43:48;;;;;;;;;11.50;11.00;;;;;22.57;46.91;101870.75;5055912;28;46013;-49
2021/09/02 03:46:13;;;;;;;;;10.00;10.00;;;;;22.58;46.65;101877.75;5056175;28;45459;-51
2021/09/02 03:48:39;;;;;;;;;11.25;10.00;;;;;22.57;47.06;101870.75;5056226;28;45306;-56
2021/09/02 03:51:04;;;;;;;;;11.25;10.50;;;;;22.55;46.87;101871.69;5056348;28;45378;-51
2021/09/02 03:53:29;;;;;;;;;12.25;12.25;;;;;22.55;47.13;101874.31;5056240;28;46644;-52
2021/09/02 03:55:55;;;;;;;;;13.25;10.00;;;;;22.54;46.89;101864.69;5056046;28;45326;-53
2021/09/02 03:58:20;;;;;;;;;10.75;8.00;;;;;22.55;47.00;101871.69;5056054;28;45383;-53
2021/09/02 04:00:45;;;;;;;;;11.25;9.50;;;;;22.54;46.94;101864.69;5056905;28;45393;-54
2021/09/02 04:03:11;;;;;;;;;9.00;9.00;;;;;22.54;47.12;101869.13;5059269;28;46607;-50
2021/09/02 04:05:36;;;;;;;;;11.50;10.50;;;;;;;;5059324;28;45359;-51
2021/09/02 04:08:01;;;;;;;;;9.00;7.00;;;;;22.55;46.68;101866.41;5059779;28;45395;-50
2021/09/02 04:10:27;;;;;;;;;10.75;7.75;;;;;22.54;46.99;101875.25;5059617;28;45185;-48
2021/09/02 04:12:53;;;;;;;;;11.25;9.75;;;;;22.55;47.03;101882.25;5059285;28;45582;-60
2021/09/02 04:15:18;;;;;;;;;10.00;9.25;;;;;22.52;46.84;101882.41;5059313;28;45316;-48
2021/09/02 04:17:44;;;;;;;;;12.00;10.00;;;;;22.53;46.92;101891.19;5059287;28;45300;-51
2021/09/02 04:20:10;;;;;;;;;12.00;10.75;;;;;22.54;47.00;101896.38;5059323;28;45602;-53
2021/09/02 04:22:35;;;;;;;;;9.50;9.50;;;;;22.54;47.07;101887.63;5059053;28;46642;-49
2021/09/02 04:25:00;;;;;;;;;9.50;9.50;;;;;22.53;47.04;101883.25;5059459;28;45313;-56
2021/09/02 04:27:26;;;;;;;;;11.00;9.50;;;;;22.53;46.86;101884.13;5059272;28;45292;-51
2021/09/02 04:29:51;;;;;;;;;11.50;9.00;;;;;22.53;46.93;101878.84;5059462;28;45290;-50
2021/09/02 04:32:16;;;;;;;;;14.50;13.75;;;;;22.53;47.01;101889.41;5058887;28;48160;-51
2021/09/02 04:34:42;;;;;;;;;11.75;10.25;;;;;22.52;46.91;101887.72;5040969;28;45920;-49
2021/09/02 04:37:07;;;;;;;;;9.50;9.25;;;;;22.52;46.90;101877.13;5059088;28;45409;-52
2021/09/02 04:39:33;;;;;;;;;12.75;10.25;;;;;22.52;46.91;101879.78;5059495;28;45322;-48
2021/09/02 04:41:58;;;;;;;;;11.00;11.00;;;;;22.52;46.88;101877.13;5058760;28;45729;-54
2021/09/02 04:44:24;;;;;;;;;10.00;9.50;;;;;22.52;46.82;101884.19;5040712;28;45628;-47
2021/09/02 04:46:49;;;;;;;;;13.50;10.75;;;;;22.52;47.01;101892.13;5058957;28;45348;-50
2021/09/02 04:49:14;;;;;;;;;9.25;8.00;;;;;22.51;46.62;101886.00;5059046;28;45803;-50
2021/09/02 04:51:40;;;;;;;;;10.75;9.25;;;;;22.52;46.74;101885.06;5058743;28;46001;-53
2021/09/02 04:54:05;;;;;;;;;12.00;11.00;;;;;22.53;47.00;101883.25;5058810;28;45810;-51
2021/09/02 04:56:30;;;;;;;;;11.00;9.25;;;;;22.51;46.89;101880.69;5040922;28;45426;-51
2021/09/02 04:58:56;;;;;;;;;12.25;10.25;;;;;22.52;47.17;101876.25;5058888;28;45558;-50
2021/09/02 05:01:21;;;;;;;;;12.00;10.00;;;;;22.51;46.97;101883.34;5058672;28;45351;-52
2021/09/02 05:03:46;;;;;;;;;12.50;10.50;;;;;22.50;47.08;101881.63;5058460;28;45272;-60
2021/09/02 05:06:12;;;;;;;;;10.25;10.00;;;;;22.51;47.09;101883.34;5058572;28;45240;-58
2021/09/02 05:08:38;;;;;;;;;10.00;10.00;;;;;22.50;47.19;101876.34;5058856;28;45313;-58
2021/09/02 05:11:03;;;;;;;;;12.25;11.00;;;;;22.52;47.33;101882.41;5058605;28;46098;-57
2021/09/02 05:13:28;;;;;;;;;11.50;11.25;;;;;22.51;47.10;101870.13;5057207;28;45419;-55
2021/09/02 05:15:54;;;;;;;;;14.00;11.75;;;;;22.51;47.05;101869.25;5058498;28;45240;-54
2021/09/02 05:18:19;;;;;;;;;9.50;9.50;;;;;22.50;47.12;101863.13;5040369;28;45253;-56
2021/09/02 05:20:44;;;;;;;;;10.50;10.50;;;;;22.52;47.23;101874.50;5057922;28;46459;-47
2021/09/02 05:23:10;;;;;;;;;11.25;10.25;;;;;22.49;46.98;101872.00;5058184;28;45671;-51
2021/09/02 05:25:35;;;;;;;;;12.50;10.75;;;;;22.52;47.44;101879.78;5058682;28;45336;-54
2021/09/02 05:28:00;;;;;;;;;10.75;10.75;;;;;22.51;47.22;101869.25;5058280;28;45630;-51
2021/09/02 05:30:26;;;;;;;;;12.00;9.50;;;;;22.52;47.30;101866.56;5057940;28;46076;-48
2021/09/02 05:32:51;;;;;;;;;10.25;10.25;;;;;22.51;47.15;101870.13;5058042;28;45322;-56
2021/09/02 05:35:16;;;;;;;;;13.00;9.50;;;;;22.51;47.44;101864.84;5058166;28;45269;-56
2021/09/02 05:37:42;;;;;;;;;14.00;12.25;;;;;22.51;47.37;101861.34;5058563;28;45486;-54
2021/09/02 05:40:09;;;;;;;;;10.50;9.25;;;;;22.50;47.38;101857.84;5057827;28;46478;-49
2021/09/02 05:42:35;;;;;;;;;12.00;9.75;;;;;22.51;47.82;101862.22;5058098;28;45411;-53
2021/09/02 05:45:00;;;;;;;;;8.25;8.25;;;;;22.49;47.32;101860.59;5058112;28;45430;-48
2021/09/02 05:47:26;;;;;;;;;11.25;10.50;;;;;22.51;47.60;101872.78;5058095;28;45300;-48
2021/09/02 05:49:51;;;;;;;;;10.00;9.50;;;;;22.50;47.38;101868.44;5057676;28;46236;-56
2021/09/02 05:52:17;;;;;;;;;14.00;10.25;;;;;22.52;47.64;101877.13;5057847;28;45392;-53
2021/09/02 05:54:42;;;;;;;;;12.00;10.00;;;;;22.51;47.25;101879.84;5057827;28;45312;-51
2021/09/02 05:57:07;;;;;;;;;9.75;9.75;;;;;22.50;47.41;101876.34;5058218;28;45556;-52
2021/09/02 05:59:33;;;;;;;;;13.75;13.00;;;;;22.52;47.15;101882.41;5057458;28;45441;-60
2021/09/02 06:01:58;;;;;;;;;7.00;6.25;;;;;22.52;47.39;101870.97;5057498;28;45328;-54
2021/09/02 06:04:23;;;;;;;;;12.75;8.75;;;;;22.51;47.45;101870.13;5057529;28;45284;-54
2021/09/02 06:06:49;;;;;;;;;11.50;11.25;;;;;22.52;47.44;101874.50;5058007;28;45307;-54
2021/09/02 06:09:14;;;;;;;;;9.25;7.25;;;;;22.52;47.39;101878.91;5057262;28;45574;-48
2021/09/02 06:11:39;;;;;;;;;9.00;8.25;;;;;22.51;47.36;101875.41;5057404;28;45282;-52
2021/09/02 06:14:05;;;;;;;;;12.25;10.00;;;;;22.50;47.25;101879.00;5057903;28;45312;-53
2021/09/02 06:16:30;;;;;;;;;12.25;11.75;;;;;22.52;47.37;101885.06;5057604;28;45562;-50
2021/09/02 06:18:55;;;;;;;;;13.75;10.75;;;;;22.52;47.35;101885.06;5057115;28;46282;-48
2021/09/02 06:21:21;;;;;;;;;12.25;11.00;;;;;22.54;47.32;101890.25;5057280;28;45178;-56
2021/09/02 06:23:47;;;;;;;;;12.75;11.50;;;;;22.53;47.48;101888.53;5056882;28;45303;-51
2021/09/02 06:26:13;;;;;;;;;11.75;11.75;;;;;22.54;47.21;101880.53;5057480;28;45273;-53
2021/09/02 06:28:38;;;;;;;;;14.25;10.50;;;;;22.54;47.13;101880.53;5039160;28;48187;-52
2021/09/02 06:31:04;;;;;;;;;10.25;10.25;;;;;22.54;47.27;101885.81;5056929;28;49996;-55
2021/09/02 06:33:29;;;;;;;;;11.25;11.25;;;;;22.54;47.21;101883.19;5057025;28;45300;-48
2021/09/02 06:35:54;;;;;;;;;11.50;10.50;;;;;22.57;47.26;101887.47;5057183;28;45594;-58
2021/09/02 06:38:20;;;;;;;;;12.75;12.75;;;;;22.57;47.06;101894.53;5056951;28;46359;-56
2021/09/02 06:40:46;;;;;;;;;14.25;13.00;;;;;22.58;47.15;101888.31;5055568;28;45295;-55
2021/09/02 06:43:11;;;;;;;;;10.75;10.75;;;;;22.54;47.08;101883.19;5056945;28;45383;-55
2021/09/02 06:45:37;;;;;;;;;11.25;11.25;;;;;22.59;47.34;101890.91;5057559;28;45581;-57
2021/09/02 06:48:03;;;;;;;;;11.50;10.75;;;;;22.59;47.11;101892.69;5056853;28;45552;-54
2021/09/02 06:50:29;;;;;;;;;11.00;10.25;;;;;22.58;47.04;101888.31;5055613;28;45351;-56
2021/09/02 06:52:54;;;;;;;;;13.50;11.00;;;;;22.58;46.96;101885.69;5056969;28;45266;-59
2021/09/02 06:55:19;;;;;;;;;12.00;12.00;;;;;22.59;47.11;101892.69;5057333;28;45343;-58
2021/09/02 06:57:44;;;;;;;;;13.00;12.00;;;;;22.59;46.91;101888.28;5056641;28;46576;-59
2021/09/02 07:00:11;;;;;;;;;12.50;11.00;;;;;22.61;46.83;101896.97;5056907;28;45198;-49
2021/09/02 07:02:37;;;;;;;;;13.25;10.25;;;;;22.60;46.75;101894.41;5057069;28;45372;-52
2021/09/02 07:05:05;;;;;;;;;17.00;14.50;;;;;22.61;46.74;101898.75;5056996;28;45375;-51
2021/09/02 07:07:30;;;;;;;;;18.00;13.50;;;;;22.62;46.76;101895.19;5056427;28;45387;-55
2021/09/02 07:09:55;;;;;;;;;13.50;11.50;;;;;22.60;46.90;101883.84;5056544;28;45380;-54
2021/09/02 07:12:21;;;;;;;;;23.25;18.00;;;;;22.61;45.91;101880.25;5056621;28;45427;-52
2021/09/02 07:14:46;;;;;;;;;22.50;16.25;;;;;22.59;45.36;101890.91;5056793;28;45376;-53
2021/09/02 07:17:11;;;;;;;;;19.25;18.25;;;;;22.58;45.36;101896.25;5056606;28;47100;-47
2021/09/02 07:19:37;;;;;;;;;17.25;14.50;;;;;22.53;45.39;101889.41;5056350;28;45421;-50
2021/09/02 07:22:02;;;;;;;;;22.75;18.25;;;;;22.54;45.48;101895.56;5038484;28;45786;-52
2021/09/02 07:24:28;;;;;;;;;14.25;13.00;;;;;22.53;45.58;101893.84;5056591;28;45327;-50
2021/09/02 07:26:53;;;;;;;;;18.75;15.50;;;;;22.54;45.84;101903.47;5056197;28;46696;-49
2021/09/02 07:29:18;;;;;;;;;18.00;15.00;;;;;22.53;45.77;101894.72;5054448;28;45470;-47
2021/09/02 07:31:44;;;;;;;;;16.00;16.00;;;;;22.54;45.75;101901.66;5056423;28;45453;-48
2021/09/02 07:34:09;;;;;;;;;16.50;16.50;;;;;22.55;45.55;101903.38;5056703;28;45266;-50
2021/09/02 07:36:37;;;;;;;;;19.00;16.00;;;;;22.57;45.53;101899.81;5055440;28;46355;-47
2021/09/02 07:39:04;;;;;;;;;14.00;11.25;;;;;22.57;45.62;101899.81;5056238;28;45407;-55
2021/09/02 07:41:29;;;;;;;;;19.75;15.25;;;;;22.55;45.78;101900.75;5056400;28;45410;-55
2021/09/02 07:43:55;;;;;;;;;17.00;14.00;;;;;22.58;45.60;101898.91;5056524;28;45441;-52
2021/09/02 07:46:20;;;;;;;;;18.25;17.25;;;;;22.59;45.75;101897.97;5056061;28;46231;-53
2021/09/02 07:48:46;;;;;;;;;14.00;14.00;;;;;22.59;45.50;101892.69;5054657;28;45351;-51
2021/09/02 07:51:17;;;;;;;;;18.75;16.50;;;;;22.60;45.30;101902.31;5056426;28;45423;-51
2021/09/02 07:53:42;;;;;;;;;20.00;15.00;;;;;22.59;45.46;101890.03;5056485;28;45488;-55
2021/09/02 07:56:08;;;;;;;;;20.25;15.50;;;;;22.60;45.25;101886.47;5055907;28;45389;-54
2021/09/02 07:58:33;;;;;;;;;19.75;17.00;;;;;22.59;45.15;101876.84;5055933;28;45350;-51
2021/09/02 08:00:59;;;;;;;;;18.75;18.25;;;;;22.59;45.30;101884.75;5056155;28;45895;-53
2021/09/02 08:03:24;;;;;;;;;20.00;17.75;;;;;22.60;45.29;101881.19;5056155;28;45578;-52
2021/09/02 08:05:50;;;;;;;;;18.75;17.75;;;;;22.61;45.26;101888.19;5055777;28;46475;-54
2021/09/02 08:08:18;;;;;;;;;22.50;20.25;;;;;22.61;45.29;101885.53;5055788;28;45388;-52
2021/09/02 08:10:45;;;;;;;;;18.75;16.50;;;;;22.61;45.26;101890.84;5056156;28;45336;-54
2021/09/02 08:13:11;;;;;;;;;25.75;18.25;;;;;22.63;45.23;101888.97;5056352;28;45443;-55
2021/09/02 08:15:38;;;;;;;;;19.25;17.25;;;;;22.60;45.22;101878.53;5055625;28;45770;-53
2021/09/02 08:18:04;;;;;;;;;17.25;16.75;;;;;22.62;45.24;101882.81;5055636;28;45843;-55
2021/09/02 08:20:30;;;;;;;;;23.75;19.75;;;;;22.63;45.28;101881.91;5055949;28;45337;-53
2021/09/02 08:22:56;;;;;;;;;13.75;12.75;;;;;22.65;45.26;101876.56;5055851;28;45762;-55
2021/09/02 08:25:21;;;;;;;;;17.50;15.75;;;;;22.65;45.18;101866.81;5055530;28;45575;-56
2021/09/02 08:27:47;;;;;;;;;19.75;17.00;;;;;22.66;45.18;101870.31;5055669;28;45407;-54
2021/09/02 08:30:16;;;;;;;;;18.00;16.75;;;;;22.67;45.43;101867.63;5055831;28;45307;-54
2021/09/02 08:32:47;;;;;;;;;19.50;19.50;;;;;22.67;45.31;101864.09;5056165;28;45487;-54
2021/09/02 08:35:14;;;;;;;;;20.25;16.50;;;;;22.68;45.19;101852.59;5055702;28;45238;-52
2021/09/02 08:37:39;;;;;;;;;23.25;20.75;;;;;22.69;45.04;101865.75;5055394;28;45790;-52
2021/09/02 08:40:05;;;;;;;;;21.50;18.75;;;;;22.69;44.97;101863.13;5055665;28;45363;-53
2021/09/02 08:42:31;;;;;;;;;23.50;23.00;;;;;22.69;45.14;101862.25;5055727;28;45562;-53
2021/09/02 08:44:56;;;;;;;;;19.50;18.25;;;;;22.69;44.98;101860.47;5055309;28;46265;-53
2021/09/02 08:47:22;;;;;;;;;22.00;19.00;;;;;22.71;45.04;101855.09;5056994;28;45448;-55
2021/09/02 08:49:48;;;;;;;;;21.00;19.25;;;;;22.71;45.09;101849.81;5058884;28;45533;-53
2021/09/02 08:52:14;;;;;;;;;29.00;25.25;;;;;22.70;45.07;101843.69;5059413;28;45376;-55
2021/09/02 08:54:40;;;;;;;;;27.00;24.25;;;;;22.68;44.82;101842.03;5058815;28;45445;-55
2021/09/02 08:57:05;;;;;;;;;25.25;20.25;;;;;22.70;44.89;101851.63;5058657;28;45277;-55
2021/09/02 08:59:30;;;;;;;;;29.25;25.25;;;;;22.70;44.88;101842.81;5058716;28;45426;-56
2021/09/02 09:01:56;;;;;;;;;28.25;23.75;;;;;22.70;44.89;101848.09;5058766;28;45336;-54
2021/09/02 09:04:21;;;;;;;;;28.50;22.50;;;;;22.69;44.71;101843.75;5058485;28;45352;-53
2021/09/02 09:06:46;;;;;;;;;28.50;26.50;;;;;22.69;44.85;101847.25;5058809;28;45538;-55
2021/09/02 09:09:14;;;;;;;;;28.25;23.50;;;;;22.71;44.86;101844.53;5058428;28;45313;-54
2021/09/02 09:11:49;;;;;;;;;29.25;24.00;;;;;22.70;44.77;101843.69;5040843;28;45300;-53
2021/09/02 09:14:17;;;;;;;;;27.75;23.00;;;;;22.70;44.54;101848.09;5040516;28;48494;-55
2021/09/02 09:16:56;;;;;;;;;28.50;22.50;;;;;22.71;44.88;101841.91;5058867;28;45457;-54
2021/09/02 09:19:54;;;;;;;;;25.75;24.50;;;;;22.71;44.87;101841.91;5058437;28;45406;-51
2021/09/02 09:22:21;;;;;;;;;25.00;23.50;;;;;22.72;44.60;101838.31;5007787;28;45379;-57
2021/09/02 09:25:03;;;;;;;;;21.00;19.50;;;;;22.71;44.95;101828.69;5058437;28;45670;-55
2021/09/02 09:27:35;;;;;;;;;31.00;27.25;;;;;22.72;45.01;101832.16;5058161;28;45941;-54
2021/09/02 09:30:11;;;;;;;;;30.00;29.00;;;;;22.73;44.98;101818.03;5058155;28;45456;-55
2021/09/02 09:32:43;;;;;;;;;25.25;23.25;;;;;22.72;44.95;101819.81;5058656;28;45546;-51
2021/09/02 09:35:11;;;;;;;;;25.25;20.75;;;;;22.73;44.60;101815.38;5056718;28;46915;-55
2021/09/02 09:37:37;;;;;;;;;27.50;23.50;;;;;22.73;45.07;101818.91;5058031;28;45350;-54
2021/09/02 09:40:10;;;;;;;;;25.50;23.75;;;;;22.75;44.99;101818.81;5058292;28;45765;-55
2021/09/02 09:42:36;;;;;;;;;31.25;24.25;;;;;22.75;44.94;101817.03;5058182;28;45410;-53
2021/09/02 09:45:01;;;;;;;;;27.25;25.00;;;;;22.76;45.00;101821.41;5057824;28;45590;-54
2021/09/02 09:47:33;;;;;;;;;26.50;23.50;;;;;22.77;44.99;101812.50;5057705;28;45503;-56
2021/09/02 09:50:02;;;;;;;;;22.25;20.75;;;;;22.75;45.10;101809.09;5058020;28;45324;-53
2021/09/02 09:52:35;;;;;;;;;28.00;24.00;;;;;22.80;44.96;101809.72;5058057;28;45229;-50
2021/09/02 09:55:00;;;;;;;;;30.75;27.25;;;;;22.84;45.08;101802.50;5057541;28;47041;-47
2021/09/02 09:57:30;;;;;;;;;26.75;22.50;;;;;22.89;45.06;101812.81;5057665;28;45406;-47
2021/09/02 10:00:00;;;;;;;;;26.25;20.25;;;;;22.92;45.03;101802.97;5056830;28;45427;-55
2021/09/02 10:02:26;;;;;;;;;26.25;20.50;;;;;22.92;44.95;101808.28;5057745;28;45450;-54
2021/09/02 10:04:53;;;;;;;;;21.50;19.50;;;;;22.93;44.83;101811.75;5057404;28;46675;-55
2021/09/02 10:07:19;;;;;;;;;26.00;22.00;;;;;22.91;44.67;101809.19;5057907;28;45835;-55
2021/09/02 10:09:45;;;;;;;;;25.00;21.50;;;;;22.90;45.05;101799.56;5057605;28;45276;-50
2021/09/02 10:12:12;;;;;;;;;25.25;19.50;;;;;22.92;44.82;101802.09;5057947;28;45299;-50
2021/09/02 10:14:37;;;;;;;;;22.75;19.00;;;;;22.92;44.71;101802.97;5039379;28;47208;-50
2021/09/02 10:17:03;;;;;;;;;22.75;22.75;;;;;22.92;44.96;101805.63;5057321;28;45455;-53
2021/09/02 10:19:33;;;;;;;;;27.25;23.75;;;;;22.92;45.18;101794.19;5057615;28;45375;-50
2021/09/02 10:21:58;;;;;;;;;23.25;21.25;;;;;22.92;44.71;101786.25;5057855;28;45504;-51
2021/09/02 10:24:37;;;;;;;;;23.75;23.00;;;;;22.93;45.03;101788.81;5057351;28;45461;-49
2021/09/02 10:27:22;;;;;;;;;21.50;19.25;;;;;22.93;45.14;101782.69;5057267;28;45334;-52
2021/09/02 10:29:49;;;;;;;;;25.50;21.00;;;;;22.94;45.01;101787.88;5057378;28;45380;-49
2021/09/02 10:32:26;;;;;;;;;25.00;22.50;;;;;22.95;45.13;101788.75;5057530;28;45329;-52
2021/09/02 10:35:12;;;;;;;;;24.75;22.75;;;;;22.96;45.21;101782.53;5057452;28;46458;-49
2021/09/02 10:37:37;;;;;;;;;22.75;20.25;;;;;22.96;44.96;101774.59;5056985;28;45272;-54
2021/09/02 10:40:06;;;;;;;;;20.33;19.00;;;;;22.96;44.86;101777.25;5057245;28;45312;-53
2021/09/02 10:42:53;;;;;;;;;25.75;20.25;;;;;22.96;45.02;101770.16;5057568;28;45336;-49
2021/09/02 10:45:27;;;;;;;;;22.75;19.50;;;;;22.95;45.00;101779.00;5057279;28;45339;-50
2021/09/02 10:47:54;;;;;;;;;25.50;22.50;;;;;22.96;45.34;101779.88;5057092;28;45997;-51
2021/09/02 10:50:23;;;;;;;;;22.50;21.25;;;;;22.98;45.13;101778.03;5057352;28;45419;-53
2021/09/02 10:52:49;;;;;;;;;19.50;17.50;;;;;22.97;45.01;101771.03;5057528;28;45470;-53
2021/09/02 10:55:39;;;;;;;;;24.50;21.75;;;;;22.98;45.08;101778.03;5056785;28;47125;-51
2021/09/02 10:58:05;;;;;;;;;19.00;18.75;;;;;22.98;45.14;101778.88;5056671;28;45388;-52
2021/09/02 11:00:35;;;;;;;;;22.50;20.50;;;;;22.99;45.04;101774.41;5056808;28;46040;-52
2021/09/02 11:03:13;;;;;;;;;23.25;22.25;;;;;23.00;45.18;101770.84;5057056;28;45261;-49
2021/09/02 11:05:41;;;;;;;;;21.25;20.00;;;;;23.01;45.17;101772.56;5056625;28;47265;-50
2021/09/02 11:08:06;;;;;;;;;23.00;22.00;;;;;23.00;45.25;101770.84;5056504;28;45905;-53
2021/09/02 11:10:32;;;;;;;;;23.50;20.75;;;;;23.01;45.51;101778.72;5055548;28;45378;-52